Time;durP1;ratioP1;P1;durP2;ratioP2;P2;SDS_P1;SDS_P2;PMS_P1;PMS_P2;Temp;Humidity;BMP_temperature;BMP_pressure;BME280_temperature;BME280_humidity;BME280_pressure;Samples;Min_cycle;Max_cycle;Signal;HPM_P1;HPM_P2
2023/07/01 00:00:19;;;;;;;20.17;9.95;;;16.90;99.90;;;;;;5022585;28;20038;-33
2023/07/01 00:02:48;;;;;;;17.98;10.25;;;17.00;99.90;;;;;;5023397;28;20029;-36
2023/07/01 00:05:14;;;;;;;18.92;9.13;;;17.00;99.90;;;;;;5024237;28;20021;-32
2023/07/01 00:07:39;;;;;;;19.00;9.45;;;16.90;99.90;;;;;;5023208;28;20368;-34
2023/07/01 00:10:05;;;;;;;18.13;9.23;;;16.80;99.90;;;;;;5021058;28;20034;-35
2023/07/01 00:12:31;;;;;;;16.77;8.93;;;16.80;99.90;;;;;;5023252;28;20410;-33
2023/07/01 00:14:57;;;;;;;14.80;8.50;;;16.90;99.90;;;;;;5021527;28;20029;-38
2023/07/01 00:17:22;;;;;;;19.13;8.98;;;16.90;99.90;;;;;;5023265;28;20574;-33
2023/07/01 00:19:48;;;;;;;14.35;8.40;;;16.90;99.90;;;;;;5022211;28;20032;-34
2023/07/01 00:22:13;;;;;;;14.23;8.40;;;16.90;99.90;;;;;;5023139;28;20052;-33
2023/07/01 00:24:39;;;;;;;15.30;7.93;;;16.90;99.90;;;;;;5020409;28;20017;-32
2023/07/01 00:27:05;;;;;;;14.18;7.25;;;16.90;99.90;;;;;;5022656;28;20572;-35
2023/07/01 00:29:30;;;;;;;12.10;6.72;;;16.90;99.90;;;;;;5023534;28;20478;-35
2023/07/01 00:31:56;;;;;;;11.23;6.75;;;16.90;99.90;;;;;;5020902;28;20041;-35
2023/07/01 00:34:22;;;;;;;10.20;6.13;;;16.90;99.90;;;;;;5022415;28;20033;-32
2023/07/01 00:36:47;;;;;;;11.32;6.85;;;16.90;99.90;;;;;;5026651;28;20068;-34
2023/07/01 00:39:13;;;;;;;15.63;6.30;;;16.90;99.90;;;;;;5020081;28;20034;-34
2023/07/01 00:41:38;;;;;;;12.02;7.15;;;17.00;99.90;;;;;;5019516;28;20030;-33
2023/07/01 00:44:04;;;;;;;10.80;6.57;;;17.00;99.90;;;;;;5024090;28;20028;-37
2023/07/01 00:46:33;;;;;;;10.93;6.25;;;17.10;99.90;;;;;;5024951;28;20029;-33
2023/07/01 00:49:02;;;;;;;11.43;6.63;;;17.10;99.90;;;;;;5020018;28;20029;-33
2023/07/01 00:51:28;;;;;;;11.60;6.50;;;17.10;99.90;;;;;;5022692;28;20033;-33
2023/07/01 00:53:55;;;;;;;14.73;7.32;;;17.10;99.90;;;;;;5022648;28;20394;-32
2023/07/01 00:56:21;;;;;;;12.70;6.82;;;17.00;99.90;;;;;;5022276;28;20144;-33
2023/07/01 00:58:46;;;;;;;11.07;6.50;;;16.90;99.90;;;;;;5020848;28;20902;-33
2023/07/01 01:01:15;;;;;;;10.85;6.22;;;16.90;99.90;;;;;;5021405;28;20056;-39
2023/07/01 01:03:53;;;;;;;14.88;6.88;;;17.00;99.90;;;;;;5021712;28;20114;-42
2023/07/01 01:06:43;;;;;;;11.68;6.40;;;16.90;99.90;;;;;;5019621;28;20037;-35
2023/07/01 01:09:26;;;;;;;10.90;6.13;;;16.80;99.90;;;;;;5022277;28;20380;-41
2023/07/01 01:11:54;;;;;;;10.85;6.35;;;16.90;99.90;;;;;;5023351;28;20029;-42
2023/07/01 01:14:21;;;;;;;11.20;6.05;;;16.80;99.90;;;;;;5021414;28;20787;-40
2023/07/01 01:16:49;;;;;;;10.75;6.10;;;16.70;99.90;;;;;;5024307;28;20095;-42
2023/07/01 01:19:25;;;;;;;8.70;5.57;;;16.70;99.90;;;;;;5021236;28;20712;-41
2023/07/01 01:22:05;;;;;;;10.82;5.97;;;16.70;99.90;;;;;;5021053;28;20029;-41
2023/07/01 01:24:34;;;;;;;9.40;5.72;;;16.70;99.90;;;;;;5018648;28;20063;-38
2023/07/01 01:27:02;;;;;;;11.00;6.28;;;16.80;99.90;;;;;;5024508;28;20131;-40
2023/07/01 01:29:30;;;;;;;10.77;5.82;;;16.80;99.90;;;;;;5022238;28;20126;-38
2023/07/01 01:31:56;;;;;;;8.27;5.40;;;16.90;99.90;;;;;;5017138;28;20506;-40
2023/07/01 01:34:21;;;;;;;6.72;5.05;;;16.80;99.90;;;;;;5020243;28;20162;-42
2023/07/01 01:36:52;;;;;;;10.00;5.50;;;16.90;99.90;;;;;;5022859;28;20030;-40
2023/07/01 01:39:24;;;;;;;9.07;4.90;;;16.90;99.90;;;;;;5017451;28;20032;-42
2023/07/01 01:42:06;;;;;;;8.63;5.85;;;16.90;99.90;;;;;;5020518;28;20045;-40
2023/07/01 01:44:45;;;;;;;8.52;5.10;;;16.90;99.90;;;;;;5020473;28;20037;-40
2023/07/01 01:47:15;;;;;;;9.50;5.60;;;16.80;99.90;;;;;;5021304;28;20079;-41
2023/07/01 01:49:42;;;;;;;9.13;5.65;;;16.80;99.90;;;;;;5023292;28;20048;-40
2023/07/01 01:52:10;;;;;;;10.00;5.37;;;16.80;99.90;;;;;;5019754;28;20056;-41
2023/07/01 01:54:37;;;;;;;;;;;16.80;99.90;;;;;;5020502;28;20030;-40
2023/07/01 01:57:03;;;;;;;7.68;5.57;;;16.70;99.90;;;;;;5017229;28;20211;-40
2023/07/01 01:59:28;;;;;;;8.43;5.32;;;16.70;99.90;;;;;;5022753;28;20067;-38
2023/07/01 02:01:54;;;;;;;9.38;5.70;;;16.50;99.90;;;;;;5020283;28;20510;-42
2023/07/01 02:04:20;;;;;;;9.32;5.32;;;16.50;99.90;;;;;;5023601;28;20144;-40
2023/07/01 02:06:46;;;;;;;10.43;5.70;;;16.40;99.90;;;;;;5017946;28;20124;-31
2023/07/01 02:09:11;;;;;;;10.50;6.05;;;16.40;99.90;;;;;;5021197;28;20029;-36
2023/07/01 02:11:38;;;;;;;8.88;5.95;;;16.40;99.90;;;;;;5019240;28;20044;-34
2023/07/01 02:14:03;;;;;;;8.20;5.45;;;16.30;99.90;;;;;;5021250;28;20398;-35
2023/07/01 02:16:29;;;;;;;9.98;6.05;;;16.40;99.90;;;;;;5024195;28;20419;-33
2023/07/01 02:18:54;;;;;;;8.40;5.50;;;16.50;99.90;;;;;;5024539;28;20157;-33
2023/07/01 02:21:20;;;;;;;8.25;5.55;;;16.50;99.90;;;;;;5017922;28;20029;-35
2023/07/01 02:23:46;;;;;;;9.43;5.72;;;16.60;99.90;;;;;;5018265;28;20014;-35
2023/07/01 02:26:11;;;;;;;9.95;5.78;;;16.60;99.90;;;;;;5003446;28;20045;-33
2023/07/01 02:28:37;;;;;;;9.52;6.47;;;16.60;99.90;;;;;;5004761;28;20099;-37
2023/07/01 02:31:03;;;;;;;9.52;5.70;;;16.50;99.90;;;;;;5019425;28;20068;-35
2023/07/01 02:33:28;;;;;;;9.98;5.72;;;16.50;99.90;;;;;;5018581;28;20057;-33
2023/07/01 02:35:54;;;;;;;12.50;6.05;;;16.50;99.90;;;;;;5021708;28;20037;-32
2023/07/01 02:38:19;;;;;;;8.55;5.63;;;16.50;99.90;;;;;;5020460;28;20060;-32
2023/07/01 02:40:45;;;;;;;11.35;5.72;;;16.60;99.90;;;;;;5017692;28;20029;-34
2023/07/01 02:43:11;;;;;;;8.30;5.30;;;16.60;99.90;;;;;;5021717;28;20061;-33
2023/07/01 02:45:36;;;;;;;6.93;4.97;;;16.60;99.90;;;;;;5023602;28;20029;-33
2023/07/01 02:48:02;;;;;;;9.85;5.28;;;16.60;99.90;;;;;;5022656;28;20061;-34
2023/07/01 02:50:28;;;;;;;8.52;5.45;;;16.50;99.90;;;;;;5022983;28;20034;-33
2023/07/01 02:52:54;;;;;;;9.43;5.65;;;16.50;99.90;;;;;;5021969;28;20498;-36
2023/07/01 02:55:19;;;;;;;8.40;5.45;;;16.50;99.90;;;;;;5020982;28;20040;-34
2023/07/01 02:57:45;;;;;;;9.18;5.68;;;16.40;99.90;;;;;;5021379;28;20368;-34
2023/07/01 03:00:14;;;;;;;10.20;5.80;;;16.50;99.90;;;;;;5020945;28;20068;-33
2023/07/01 03:02:39;;;;;;;9.45;5.43;;;16.50;99.90;;;;;;5016208;28;20033;-33
2023/07/01 03:05:07;;;;;;;7.63;5.18;;;16.50;99.90;;;;;;5019822;28;20040;-33
2023/07/01 03:07:33;;;;;;;12.93;5.72;;;16.50;99.90;;;;;;5021077;28;20029;-32
2023/07/01 03:09:58;;;;;;;8.93;4.88;;;16.30;99.90;;;;;;5022835;28;20084;-33
2023/07/01 03:12:24;;;;;;;8.73;5.43;;;16.30;99.90;;;;;;5018826;28;20115;-34
2023/07/01 03:14:50;;;;;;;8.43;5.28;;;16.40;99.90;;;;;;5017043;28;20037;-34
2023/07/01 03:17:15;;;;;;;9.70;4.88;;;16.50;99.90;;;;;;5021561;28;20029;-42
2023/07/01 03:19:41;;;;;;;11.27;5.55;;;16.50;99.90;;;;;;5017496;28;20510;-36
2023/07/01 03:22:07;;;;;;;9.82;5.70;;;16.40;99.90;;;;;;5019246;28;20026;-43
2023/07/01 03:24:33;;;;;;;8.82;5.32;;;16.40;99.90;;;;;;5017051;28;20038;-39
2023/07/01 03:27:03;;;;;;;9.25;5.63;;;16.40;99.90;;;;;;5018978;28;20059;-38
2023/07/01 03:29:29;;;;;;;8.35;5.22;;;16.40;99.90;;;;;;5019070;28;20025;-42
2023/07/01 03:31:55;;;;;;;10.20;5.60;;;16.40;99.90;;;;;;5018372;28;20048;-38
2023/07/01 03:34:24;;;;;;;10.55;6.15;;;16.50;99.90;;;;;;5019478;28;20025;-41
2023/07/01 03:36:49;;;;;;;8.00;5.15;;;16.50;99.90;;;;;;5018807;28;20032;-38
2023/07/01 03:39:16;;;;;;;8.77;5.05;;;16.40;99.90;;;;;;5018077;28;20026;-41
2023/07/01 03:41:42;;;;;;;9.18;5.32;;;16.40;99.90;;;;;;5016503;28;20021;-41
2023/07/01 03:44:07;;;;;;;7.03;5.22;;;16.40;99.90;;;;;;5021790;28;20048;-41
2023/07/01 03:46:33;;;;;;;9.48;5.25;;;16.50;99.90;;;;;;5024650;28;20040;-40
2023/07/01 03:48:58;;;;;;;10.30;6.05;;;16.50;99.90;;;;;;5023277;28;20387;-41
2023/07/01 03:51:24;;;;;;;9.60;5.28;;;16.60;99.90;;;;;;5021539;28;20084;-41
2023/07/01 03:53:51;;;;;;;8.40;5.43;;;16.60;99.90;;;;;;5024554;28;20099;-39
2023/07/01 03:56:17;;;;;;;11.48;6.97;;;16.60;99.90;;;;;;5023880;28;20413;-36
2023/07/01 03:58:42;;;;;;;9.15;5.57;;;16.60;99.90;;;;;;5023796;28;20035;-42
2023/07/01 04:01:08;;;;;;;10.40;6.18;;;16.60;99.90;;;;;;5022941;28;20030;-39
2023/07/01 04:03:34;;;;;;;8.13;5.28;;;16.60;99.90;;;;;;5021450;28;20171;-41
2023/07/01 04:06:00;;;;;;;11.30;5.97;;;16.60;99.90;;;;;;5016463;28;20030;-40
2023/07/01 04:08:25;;;;;;;10.25;5.88;;;16.60;99.90;;;;;;5021040;28;20025;-41
2023/07/01 04:10:51;;;;;;;10.27;5.97;;;16.60;99.90;;;;;;5021672;28;20112;-42
2023/07/01 04:13:16;;;;;;;8.88;5.10;;;16.60;99.90;;;;;;5020106;28;20037;-40
2023/07/01 04:15:42;;;;;;;9.90;5.70;;;16.60;99.90;;;;;;5024336;28;20037;-39
2023/07/01 04:18:07;;;;;;;10.80;6.05;;;16.70;99.90;;;;;;5021327;28;20030;-40
2023/07/01 04:20:33;;;;;;;9.20;5.93;;;16.70;99.90;;;;;;5025642;28;20025;-40
2023/07/01 04:22:59;;;;;;;9.23;6.30;;;16.60;99.90;;;;;;5020685;28;20045;-41
2023/07/01 04:25:24;;;;;;;11.68;6.57;;;16.60;99.90;;;;;;5023606;28;20037;-41
2023/07/01 04:27:50;;;;;;;9.25;6.10;;;16.60;99.90;;;;;;5025626;28;20095;-37
2023/07/01 04:30:16;;;;;;;12.50;6.45;;;16.60;99.90;;;;;;5024156;28;20387;-39
2023/07/01 04:32:42;;;;;;;11.70;6.35;;;16.60;99.90;;;;;;5021690;28;20034;-42
2023/07/01 04:35:07;;;;;;;10.68;6.43;;;16.60;99.90;;;;;;5023385;28;20026;-41
2023/07/01 04:37:34;;;;;;;9.70;6.35;;;16.60;99.90;;;;;;5021997;28;20491;-33
2023/07/01 04:40:00;;;;;;;11.68;6.97;;;16.60;99.90;;;;;;5022394;28;20606;-42
2023/07/01 04:42:26;;;;;;;9.98;5.95;;;16.70;99.90;;;;;;5022374;28;20036;-42
2023/07/01 04:44:54;;;;;;;10.43;5.60;;;16.60;99.90;;;;;;5025064;28;20021;-37
2023/07/01 04:47:21;;;;;;;;;;;16.60;99.90;;;;;;5022698;28;20029;-42
2023/07/01 04:49:46;;;;;;;10.68;5.70;;;16.60;99.90;;;;;;5021375;28;19932;-40
2023/07/01 04:52:14;;;;;;;9.60;6.20;;;16.70;99.90;;;;;;5023716;28;20482;-41
2023/07/01 04:54:40;;;;;;;9.25;5.90;;;16.70;99.90;;;;;;5022324;28;20537;-42
2023/07/01 04:57:05;;;;;;;9.57;5.80;;;16.70;99.90;;;;;;5005256;28;20034;-40
2023/07/01 04:59:31;;;;;;;11.25;6.78;;;16.80;99.90;;;;;;5023459;28;20120;-42
2023/07/01 05:01:57;;;;;;;10.43;6.03;;;16.80;99.90;;;;;;5020659;28;20511;-39
2023/07/01 05:04:22;;;;;;;10.00;6.00;;;16.90;99.90;;;;;;5022330;28;20588;-39
2023/07/01 05:06:48;;;;;;;10.85;6.05;;;16.90;99.90;;;;;;5023888;28;20029;-41
2023/07/01 05:09:13;;;;;;;8.85;5.68;;;17.00;99.90;;;;;;5021569;28;20034;-42
2023/07/01 05:11:39;;;;;;;13.23;5.65;;;17.00;99.90;;;;;;5022144;28;20100;-36
2023/07/01 05:14:04;;;;;;;8.32;5.57;;;17.00;99.90;;;;;;5026800;28;20606;-39
2023/07/01 05:16:31;;;;;;;8.18;5.63;;;17.00;99.90;;;;;;5023763;28;20036;-38
2023/07/01 05:18:58;;;;;;;11.02;5.68;;;17.00;99.90;;;;;;5017349;28;20021;-42
2023/07/01 05:21:24;;;;;;;8.27;5.43;;;17.00;99.90;;;;;;5022258;28;20057;-41
2023/07/01 05:23:50;;;;;;;10.30;5.28;;;17.00;99.90;;;;;;5020953;28;20135;-34
2023/07/01 05:26:15;;;;;;;10.52;5.13;;;17.10;99.90;;;;;;5024927;28;20116;-41
2023/07/01 05:28:41;;;;;;;9.30;4.70;;;17.10;99.90;;;;;;5022265;28;20056;-42
2023/07/01 05:31:07;;;;;;;6.95;4.53;;;17.10;99.90;;;;;;5023559;28;20033;-42
2023/07/01 05:33:32;;;;;;;8.38;4.65;;;17.20;99.90;;;;;;5019418;28;20047;-42
2023/07/01 05:35:58;;;;;;;9.60;4.90;;;17.20;99.90;;;;;;5021285;28;20026;-34
2023/07/01 05:38:23;;;;;;;7.15;4.80;;;17.20;99.90;;;;;;5020913;28;20033;-31
2023/07/01 05:40:49;;;;;;;9.43;5.00;;;17.20;99.90;;;;;;5024674;28;20089;-32
2023/07/01 05:43:16;;;;;;;7.13;4.85;;;17.20;99.90;;;;;;5019350;28;20379;-32
2023/07/01 05:45:41;;;;;;;6.97;4.05;;;17.20;99.90;;;;;;5024414;28;20045;-30
2023/07/01 05:48:07;;;;;;;10.15;5.15;;;17.20;99.90;;;;;;5022956;28;20491;-31
2023/07/01 05:50:33;;;;;;;6.80;4.47;;;17.20;99.90;;;;;;5023351;28;20041;-33
2023/07/01 05:52:59;;;;;;;7.60;4.85;;;17.30;99.90;;;;;;5023320;28;20052;-31
2023/07/01 05:55:25;;;;;;;6.60;3.92;;;17.30;99.90;;;;;;5020275;28;20422;-31
2023/07/01 05:57:50;;;;;;;6.15;3.88;;;17.30;99.90;;;;;;5024225;28;20034;-32
2023/07/01 06:00:16;;;;;;;7.10;4.10;;;17.30;99.90;;;;;;5024019;28;20052;-31
2023/07/01 06:02:42;;;;;;;5.97;3.83;;;17.40;99.90;;;;;;5024081;28;20030;-31
2023/07/01 06:05:10;;;;;;;6.63;4.63;;;17.50;99.90;;;;;;5022220;28;20054;-30
2023/07/01 06:07:36;;;;;;;5.80;4.05;;;17.60;99.90;;;;;;5023552;28;20049;-32
2023/07/01 06:10:02;;;;;;;5.47;4.18;;;17.60;99.90;;;;;;5022861;28;20034;-32
2023/07/01 06:12:28;;;;;;;5.47;3.85;;;17.60;99.90;;;;;;5023602;28;20065;-30
2023/07/01 06:14:53;;;;;;;4.72;3.38;;;17.60;99.90;;;;;;5024097;28;20139;-33
2023/07/01 06:17:19;;;;;;;5.55;3.70;;;17.60;99.90;;;;;;5020163;28;20033;-34
2023/07/01 06:19:44;;;;;;;7.50;4.07;;;17.70;99.90;;;;;;5023240;28;20025;-33
2023/07/01 06:22:10;;;;;;;7.97;4.22;;;17.80;99.90;;;;;;5024260;28;20039;-33
2023/07/01 06:24:35;;;;;;;6.05;3.85;;;17.90;99.90;;;;;;5019339;28;20029;-37
2023/07/01 06:27:01;;;;;;;5.13;3.90;;;18.10;99.90;;;;;;5018932;28;20033;-31
2023/07/01 06:29:27;;;;;;;5.30;3.50;;;18.00;99.90;;;;;;5024654;28;20043;-34
2023/07/01 06:31:52;;;;;;;5.90;3.45;;;18.00;99.90;;;;;;5020369;28;20430;-35
2023/07/01 06:34:18;;;;;;;6.63;3.97;;;17.80;99.90;;;;;;5025907;28;20387;-33
2023/07/01 06:36:44;;;;;;;5.35;3.78;;;17.80;99.90;;;;;;5021641;28;20034;-35
2023/07/01 06:39:10;;;;;;;4.90;3.65;;;17.90;99.90;;;;;;5021017;28;20547;-33
2023/07/01 06:41:36;;;;;;;7.00;3.80;;;18.00;99.90;;;;;;5021537;28;20040;-34
2023/07/01 06:44:02;;;;;;;11.25;3.90;;;18.20;99.90;;;;;;5022615;28;20029;-33
2023/07/01 06:46:28;;;;;;;5.35;4.13;;;18.30;99.90;;;;;;5024531;28;20044;-31
2023/07/01 06:48:53;;;;;;;4.65;3.35;;;18.50;99.90;;;;;;5022755;28;20037;-42
2023/07/01 06:51:19;;;;;;;6.97;3.65;;;18.50;99.90;;;;;;5023041;28;20042;-41
2023/07/01 06:53:45;;;;;;;5.05;3.67;;;18.70;99.90;;;;;;5019589;28;20395;-40
2023/07/01 06:56:10;;;;;;;4.60;3.28;;;18.80;99.90;;;;;;5017615;28;20060;-39
2023/07/01 06:58:36;;;;;;;5.43;3.80;;;18.80;99.90;;;;;;5018193;28;20017;-41
2023/07/01 07:01:02;;;;;;;4.93;3.33;;;18.80;99.90;;;;;;5016252;28;20040;-41
2023/07/01 07:03:28;;;;;;;4.60;3.90;;;18.90;99.90;;;;;;5021778;28;20021;-39
2023/07/01 07:05:55;;;;;;;5.45;3.00;;;18.90;99.90;;;;;;5022462;28;20034;-41
2023/07/01 07:08:21;;;;;;;6.05;3.35;;;18.90;99.90;;;;;;5020851;28;20487;-35
2023/07/01 07:10:47;;;;;;;5.05;3.10;;;19.00;99.90;;;;;;5018023;28;20060;-41
2023/07/01 07:13:13;;;;;;;4.18;3.40;;;19.00;99.90;;;;;;5020246;28;20026;-42
2023/07/01 07:15:38;;;;;;;4.30;3.17;;;19.20;99.90;;;;;;5020272;28;20041;-36
2023/07/01 07:18:07;;;;;;;5.32;2.80;;;19.60;99.90;;;;;;5021649;28;20053;-41
2023/07/01 07:20:34;;;;;;;3.75;3.17;;;19.60;99.90;;;;;;5023324;28;20113;-40
2023/07/01 07:23:01;;;;;;;5.03;3.10;;;19.60;99.90;;;;;;5022306;28;20030;-40
2023/07/01 07:25:27;;;;;;;5.25;3.13;;;19.60;99.90;;;;;;5025973;28;20022;-42
2023/07/01 07:27:52;;;;;;;5.07;3.25;;;19.70;99.90;;;;;;5021720;28;20475;-41
2023/07/01 07:30:18;;;;;;;3.63;3.10;;;19.90;99.90;;;;;;5023936;28;20063;-41
2023/07/01 07:32:44;;;;;;;5.00;2.90;;;20.10;99.90;;;;;;5016461;28;20194;-41
2023/07/01 07:35:09;;;;;;;3.70;3.03;;;20.20;99.90;;;;;;5024981;28;20040;-38
2023/07/01 07:37:36;;;;;;;4.65;2.97;;;20.30;99.90;;;;;;5023088;28;20057;-41
2023/07/01 07:40:05;;;;;;;4.03;3.40;;;20.20;99.90;;;;;;5024825;28;20029;-41
2023/07/01 07:42:31;;;;;;;2.95;2.65;;;20.00;99.90;;;;;;5027505;28;20483;-40
2023/07/01 07:44:57;;;;;;;4.50;3.20;;;20.20;99.90;;;;;;5023649;28;20435;-37
2023/07/01 07:47:22;;;;;;;6.18;3.03;;;20.40;99.90;;;;;;5023039;28;20051;-41
2023/07/01 07:49:48;;;;;;;3.65;3.00;;;20.60;99.90;;;;;;5022757;28;20047;-41
2023/07/01 07:52:13;;;;;;;3.70;2.90;;;20.50;99.90;;;;;;5022602;28;20033;-39
2023/07/01 07:54:42;;;;;;;3.85;2.88;;;20.10;99.90;;;;;;5021198;28;20029;-40
2023/07/01 07:57:07;;;;;;;4.70;3.17;;;20.10;99.90;;;;;;5023456;28;20479;-34
2023/07/01 07:59:33;;;;;;;3.80;2.60;;;20.40;99.90;;;;;;5003593;28;20055;-35
2023/07/01 08:02:00;;;;;;;4.50;2.67;;;20.50;99.90;;;;;;5020040;28;20064;-37
2023/07/01 08:04:26;;;;;;;3.53;2.88;;;20.10;99.90;;;;;;5018433;28;20018;-33
2023/07/01 08:06:54;;;;;;;4.90;2.90;;;20.10;99.90;;;;;;5020402;28;20112;-36
2023/07/01 08:09:20;;;;;;;5.30;2.70;;;20.40;99.90;;;;;;5022499;28;20034;-34
2023/07/01 08:11:46;;;;;;;4.65;2.80;;;20.60;99.90;;;;;;5021422;28;20037;-32
2023/07/01 08:14:12;;;;;;;3.30;3.00;;;20.70;99.90;;;;;;5020886;28;20037;-33
2023/07/01 08:16:38;;;;;;;5.95;2.92;;;20.70;99.90;;;;;;5020761;28;20036;-34
2023/07/01 08:19:04;;;;;;;3.58;2.80;;;20.60;99.90;;;;;;5021469;28;20021;-33
2023/07/01 08:21:29;;;;;;;3.05;2.70;;;20.40;99.90;;;;;;5024535;28;20120;-32
2023/07/01 08:23:55;;;;;;;3.28;2.50;;;20.30;99.90;;;;;;5021302;28;20041;-32
2023/07/01 08:26:21;;;;;;;4.53;3.15;;;20.20;99.90;;;;;;5024012;28;20029;-34
2023/07/01 08:28:46;;;;;;;5.15;2.95;;;20.30;99.90;;;;;;5023417;28;20051;-36
2023/07/01 08:31:12;;;;;;;2.92;2.55;;;20.70;99.90;;;;;;5018725;28;20709;-33
2023/07/01 08:33:38;;;;;;;3.80;2.90;;;20.70;99.90;;;;;;5020134;28;20037;-34
2023/07/01 08:36:04;;;;;;;5.13;3.00;;;20.70;99.90;;;;;;5022919;28;20546;-34
2023/07/01 08:38:30;;;;;;;5.57;2.95;;;21.10;99.90;;;;;;5024458;28;20309;-35
2023/07/01 08:41:02;;;;;;;3.60;2.65;;;21.10;99.90;;;;;;5022278;28;20498;-32
2023/07/01 08:43:30;;;;;;;4.28;2.30;;;21.00;99.90;;;;;;5026053;28;20867;-35
2023/07/01 08:46:03;;;;;;;3.63;2.53;;;20.90;99.90;;;;;;5025517;28;20036;-33
2023/07/01 08:48:32;;;;;;;5.45;3.05;;;20.90;99.90;;;;;;5019874;28;20045;-35
2023/07/01 08:51:12;;;;;;;4.82;2.95;;;20.50;99.90;;;;;;5024937;28;20033;-31
2023/07/01 08:53:41;;;;;;;4.32;2.70;;;20.40;99.90;;;;;;5025071;28;20112;-31
2023/07/01 08:56:07;;;;;;;5.53;2.83;;;20.40;99.90;;;;;;5022246;28;20160;-31
2023/07/01 08:58:33;;;;;;;4.45;2.80;;;20.60;99.90;;;;;;5024048;28;20029;-35
2023/07/01 09:00:59;;;;;;;3.38;2.33;;;20.70;99.90;;;;;;5019155;28;20037;-34
2023/07/01 09:03:26;;;;;;;3.22;2.50;;;21.10;99.90;;;;;;5024367;28;20052;-32
2023/07/01 09:05:52;;;;;;;3.63;2.58;;;21.20;99.90;;;;;;5027557;28;20036;-32
2023/07/01 09:08:18;;;;;;;4.05;2.70;;;21.30;99.90;;;;;;5024378;28;20387;-29
2023/07/01 09:10:44;;;;;;;2.53;2.15;;;20.90;99.90;;;;;;5024382;28;20107;-33
2023/07/01 09:13:13;;;;;;;4.55;3.03;;;21.10;99.90;;;;;;5003578;28;20040;-33
2023/07/01 09:15:46;;;;;;;3.17;2.55;;;21.60;99.90;;;;;;5024344;28;20140;-32
2023/07/01 09:18:22;;;;;;;4.30;2.70;;;21.20;99.90;;;;;;5026944;28;20548;-30
2023/07/01 09:20:49;;;;;;;3.92;2.92;;;21.50;99.90;;;;;;5026175;28;20021;-30
2023/07/01 09:23:26;;;;;;;3.27;2.40;;;21.40;99.90;;;;;;5022899;28;20032;-29
2023/07/01 09:26:10;;;;;;;3.10;2.30;;;21.50;99.90;;;;;;5023166;28;20401;-30
2023/07/01 09:28:36;;;;;;;7.18;2.38;;;21.70;99.90;;;;;;5021639;28;20686;-30
2023/07/01 09:31:03;;;;;;;3.08;2.60;;;21.80;99.90;;;;;;5020026;28;20030;-34
2023/07/01 09:33:30;;;;;;;3.93;2.80;;;22.00;99.90;;;;;;5023311;28;20034;-34
2023/07/01 09:36:02;;;;;;;3.67;2.55;;;22.40;99.90;;;;;;5022398;28;20280;-35
2023/07/01 09:38:32;;;;;;;4.25;2.55;;;22.80;99.90;;;;;;5023781;28;20056;-31
2023/07/01 09:41:18;;;;;;;4.25;2.53;;;23.30;99.90;;;;;;5022863;28;20084;-32
2023/07/01 09:43:44;;;;;;;4.97;2.47;;;23.10;99.90;;;;;;5023939;28;20032;-31
2023/07/01 09:46:09;;;;;;;3.95;2.20;;;22.80;99.90;;;;;;5029585;28;20021;-34
2023/07/01 09:48:36;;;;;;;2.42;2.20;;;23.00;99.90;;;;;;5025188;28;20099;-31
2023/07/01 09:51:05;;;;;;;3.67;2.20;;;23.20;99.90;;;;;;5025630;28;20412;-31
2023/07/01 09:53:33;;;;;;;2.97;2.65;;;22.70;99.90;;;;;;5024767;28;20104;-31
2023/07/01 09:56:01;;;;;;;2.63;2.38;;;22.40;99.90;;;;;;5023639;28;20022;-33
2023/07/01 09:58:27;;;;;;;2.80;2.60;;;22.20;99.90;;;;;;5026540;28;20114;-31
2023/07/01 10:00:54;;;;;;;2.83;2.33;;;22.30;99.90;;;;;;5027313;28;20049;-35
2023/07/01 10:03:20;;;;;;;3.35;2.97;;;22.40;99.90;;;;;;5019902;28;20033;-30
2023/07/01 10:05:51;;;;;;;2.90;2.60;;;22.40;99.90;;;;;;5027047;28;20028;-32
2023/07/01 10:08:17;;;;;;;4.10;2.65;;;22.30;99.90;;;;;;5022229;28;20021;-31
2023/07/01 10:10:43;;;;;;;2.88;2.58;;;22.20;99.90;;;;;;5020320;28;20187;-31
2023/07/01 10:13:11;;;;;;;3.53;2.70;;;22.20;99.90;;;;;;5022611;28;20033;-31
2023/07/01 10:15:39;;;;;;;3.15;2.95;;;22.20;99.90;;;;;;5026360;28;20246;-31
2023/07/01 10:18:22;;;;;;;3.88;2.50;;;22.30;99.90;;;;;;5025645;28;20116;-40
2023/07/01 10:20:51;;;;;;;2.80;2.30;;;22.40;99.90;;;;;;5021984;28;20395;-42
2023/07/01 10:23:18;;;;;;;2.72;2.47;;;22.20;99.90;;;;;;5021051;28;20025;-42
2023/07/01 10:25:44;;;;;;;5.20;2.90;;;22.00;99.90;;;;;;5020187;28;20034;-39
2023/07/01 10:28:13;;;;;;;4.03;2.33;;;21.90;99.90;;;;;;5019224;28;20036;-36
2023/07/01 10:30:44;;;;;;;2.80;2.58;;;21.80;99.90;;;;;;5021099;28;20557;-41
2023/07/01 10:33:33;;;;;;;4.05;2.63;;;22.00;99.90;;;;;;5023868;28;20479;-37
2023/07/01 10:36:05;;;;;;;3.40;2.35;;;22.20;99.90;;;;;;5021173;28;20131;-40
2023/07/01 10:38:31;;;;;;;4.55;3.00;;;22.00;99.90;;;;;;5021480;28;20088;-40
2023/07/01 10:40:57;;;;;;;3.08;2.75;;;21.90;99.90;;;;;;5021008;28;20113;-39
2023/07/01 10:43:25;;;;;;;3.30;2.63;;;21.80;99.90;;;;;;5017874;28;20435;-42
2023/07/01 10:46:20;;;;;;;3.55;2.72;;;21.90;99.90;;;;;;5020657;28;20037;-41
2023/07/01 10:49:05;;;;;;;3.00;2.70;;;22.00;99.90;;;;;;5024323;28;20034;-40
2023/07/01 10:51:46;;;;;;;4.28;2.60;;;22.00;99.90;;;;;;5021560;28;20033;-41
2023/07/01 10:54:11;;;;;;;3.00;2.58;;;21.90;99.90;;;;;;5025091;28;20060;-42
2023/07/01 10:56:39;;;;;;;2.92;2.38;;;21.80;99.90;;;;;;5025760;28;20021;-41
2023/07/01 10:59:31;;;;;;;2.83;2.42;;;21.70;99.90;;;;;;5021239;28;20034;-38
2023/07/01 11:01:59;;;;;;;4.68;2.50;;;22.30;99.90;;;;;;5005204;28;20593;-40
2023/07/01 11:04:51;;;;;;;2.42;2.17;;;23.00;99.90;;;;;;5023975;28;20025;-42
2023/07/01 11:07:27;;;;;;;3.88;2.28;;;23.30;99.90;;;;;;5025755;28;20564;-39
2023/07/01 11:09:54;;;;;;;3.17;2.00;;;23.50;99.90;;;;;;5021869;28;20029;-37
2023/07/01 11:12:19;;;;;;;3.03;2.20;;;23.60;99.90;;;;;;5024018;28;20550;-42
2023/07/01 11:14:45;;;;;;;2.50;2.25;;;23.50;99.90;;;;;;5024363;28;20100;-36
2023/07/01 11:17:16;;;;;;;2.20;1.98;;;23.60;99.90;;;;;;5028345;28;20502;-40
2023/07/01 11:19:44;;;;;;;3.58;2.20;;;23.00;99.90;;;;;;5028792;28;20079;-42
2023/07/01 11:22:16;;;;;;;4.07;2.40;;;22.90;99.90;;;;;;5027546;28;20028;-40
2023/07/01 11:24:42;;;;;;;5.40;2.70;;;23.40;99.90;;;;;;5027914;28;20293;-42
2023/07/01 11:27:08;;;;;;;2.45;2.08;;;23.90;99.90;;;;;;5025497;28;20369;-37
2023/07/01 11:29:35;;;;;;;2.70;2.40;;;23.80;99.90;;;;;;5028106;28;20836;-41
2023/07/01 11:32:12;;;;;;;6.75;2.58;;;23.20;99.90;;;;;;5025857;28;20056;-39
2023/07/01 11:34:39;;;;;;;4.43;2.55;;;23.10;99.90;;;;;;5025175;28;20099;-41
2023/07/01 11:37:06;;;;;;;3.03;2.37;;;23.70;99.90;;;;;;5024451;28;20041;-40
2023/07/01 11:39:31;;;;;;;3.40;2.42;;;24.20;99.90;;;;;;5021125;28;20021;-41
2023/07/01 11:42:00;;;;;;;3.50;2.58;;;24.30;99.90;;;;;;5023796;28;20569;-42
2023/07/01 11:44:32;;;;;;;3.58;2.40;;;24.10;99.90;;;;;;5026569;28;20029;-39
2023/07/01 11:46:58;;;;;;;2.90;2.60;;;23.80;99.90;;;;;;5025672;28;20033;-40
2023/07/01 11:49:23;;;;;;;2.45;2.25;;;23.50;99.90;;;;;;5025463;28;20100;-39
2023/07/01 11:52:00;;;;;;;2.80;2.38;;;23.30;99.90;;;;;;5023561;28;20029;-41
2023/07/01 11:54:47;;;;;;;4.72;2.25;;;23.30;99.90;;;;;;5022259;28;20661;-42
2023/07/01 11:57:15;;;;;;;4.10;2.38;;;23.70;99.90;;;;;;5027965;28;20073;-42
2023/07/01 11:59:42;;;;;;;3.80;2.47;;;23.90;99.90;;;;;;5027310;28;20080;-37
2023/07/01 12:02:08;;;;;;;2.75;2.47;;;24.20;99.90;;;;;;5023679;28;20025;-42
2023/07/01 12:04:37;;;;;;;2.70;2.38;;;24.40;99.90;;;;;;5022671;28;20079;-38
2023/07/01 12:07:15;;;;;;;3.03;2.17;;;24.80;99.90;;;;;;5020704;28;20037;-42
2023/07/01 12:09:44;;;;;;;2.88;2.08;;;24.70;99.90;;;;;;5022411;28;20029;-41
2023/07/01 12:12:11;;;;;;;3.20;2.10;;;24.70;99.90;;;;;;5023925;28;20120;-40
2023/07/01 12:14:38;;;;;;;6.17;2.70;;;24.50;99.90;;;;;;5025256;28;20040;-41
2023/07/01 12:17:04;;;;;;;4.23;2.93;;;24.20;99.90;;;;;;5027908;28;20120;-39
2023/07/01 12:19:30;;;;;;;4.10;2.58;;;23.80;99.90;;;;;;5025823;28;20064;-38
2023/07/01 12:21:58;;;;;;;4.03;2.80;;;24.10;99.90;;;;;;5020360;28;20030;-40
2023/07/01 12:24:32;;;;;;;3.85;2.72;;;24.40;99.90;;;;;;5025901;28;20033;-40
2023/07/01 12:27:00;;;;;;;3.50;2.42;;;24.50;99.90;;;;;;5020644;28;20029;-41
2023/07/01 12:29:26;;;;;;;4.80;2.55;;;24.30;99.90;;;;;;5025475;28;20033;-41
2023/07/01 12:31:57;;;;;;;3.28;2.60;;;24.40;99.90;;;;;;5026025;28;20387;-42
2023/07/01 12:34:24;;;;;;;2.72;2.47;;;24.70;99.90;;;;;;5023562;28;20033;-42
2023/07/01 12:36:52;;;;;;;2.97;2.60;;;25.00;99.90;;;;;;5007801;28;20048;-41
2023/07/01 12:39:18;;;;;;;3.70;2.40;;;25.10;99.90;;;;;;5023580;28;20069;-31
2023/07/01 12:41:46;;;;;;;4.53;2.72;;;24.90;99.90;;;;;;5022695;28;20124;-31
2023/07/01 12:44:12;;;;;;;4.22;3.40;;;25.00;99.90;;;;;;5021927;28;20064;-32
2023/07/01 12:46:43;;;;;;;4.30;2.60;;;25.00;99.90;;;;;;5021396;28;20085;-33